Time;durP1;ratioP1;P1;durP2;ratioP2;P2;SDS_P1;SDS_P2;PMS_P1;PMS_P2;Temp;Humidity;BMP_temperature;BMP_pressure;BME280_temperature;BME280_humidity;BME280_pressure;Samples;Min_cycle;Max_cycle;Signal;HPM_P1;HPM_P2
2021/03/15 00:00:42;;;;;;;6.00;3.80;;;;;;;0.17;100.00;100090.78;5045893;28;20219;-75
2021/03/15 00:03:08;;;;;;;8.17;3.83;;;;;;;0.23;100.00;100094.22;5045712;28;20213;-74
2021/03/15 00:05:34;;;;;;;8.40;4.30;;;;;;;0.26;100.00;100095.13;5049871;28;20263;-73
2021/03/15 00:08:00;;;;;;;6.20;3.80;;;;;;;0.22;100.00;100095.94;5044106;28;20215;-73
2021/03/15 00:10:27;;;;;;;6.90;3.67;;;;;;;0.20;100.00;100101.94;5044203;28;20236;-74
2021/03/15 00:12:53;;;;;;;7.73;4.10;;;;;;;0.15;100.00;100094.19;5043562;28;20188;-75
2021/03/15 00:15:22;;;;;;;9.27;4.10;;;;;;;0.20;100.00;100104.50;5057335;28;20199;-74
2021/03/15 00:17:48;;;;;;;8.23;3.97;;;;;;;0.22;100.00;100100.22;5046622;28;20249;-75
2021/03/15 00:20:17;;;;;;;6.97;3.83;;;;;;;0.19;100.00;100093.34;5043038;28;20225;-73
2021/03/15 00:22:44;;;;;;;8.17;3.80;;;;;;;0.22;100.00;100095.94;5047475;28;20266;-73
2021/03/15 00:25:11;;;;;;;8.30;4.40;;;;;;;0.22;100.00;100089.97;5044513;28;20208;-73
2021/03/15 00:27:39;;;;;;;6.13;3.87;;;;;;;0.23;100.00;100082.28;5048103;28;20196;-73
2021/03/15 00:30:07;;;;;;;9.83;4.53;;;;;;;0.27;100.00;100078.91;5045084;28;20219;-74
2021/03/15 00:32:35;;;;;;;6.47;4.17;;;;;;;0.33;100.00;100076.34;5042889;28;20199;-74
2021/03/15 00:35:01;;;;;;;5.63;3.67;;;;;;;0.37;100.00;100085.81;5040864;28;20553;-72
2021/03/15 00:37:28;;;;;;;8.07;4.20;;;;;;;0.40;100.00;100081.53;5046557;28;20657;-74
2021/03/15 00:39:54;;;;;;;7.80;4.20;;;;;;;0.37;100.00;100079.81;5047536;28;20589;-73
2021/03/15 00:42:20;;;;;;;6.23;4.30;;;;;;;0.36;100.00;100075.53;5042876;28;20210;-74
2021/03/15 00:44:46;;;;;;;8.40;4.73;;;;;;;0.32;100.00;100073.81;5045039;28;20204;-74
2021/03/15 00:47:12;;;;;;;8.37;3.67;;;;;;;0.31;100.00;100072.94;5043479;28;20735;-74
2021/03/15 00:49:39;;;;;;;7.47;3.73;;;;;;;0.27;100.00;100071.19;5042399;28;20209;-74
2021/03/15 00:52:06;;;;;;;8.63;3.93;;;;;;;0.26;100.00;100068.63;5047686;28;20209;-77
2021/03/15 00:54:32;;;;;;;9.07;4.03;;;;;;;0.22;100.00;100066.88;5049359;28;20542;-74
2021/03/15 00:57:01;;;;;;;7.33;4.03;;;;;;;0.24;100.00;100070.31;5046128;28;20594;-75
2021/03/15 00:59:27;;;;;;;7.23;3.77;;;;;;;0.22;100.00;100064.31;5061737;28;20213;-75
2021/03/15 01:01:54;;;;;;;9.60;3.93;;;;;;;0.15;100.00;100071.97;5042953;28;20203;-74
2021/03/15 01:04:20;;;;;;;6.83;4.07;;;;;;;0.10;100.00;100068.50;5063160;28;20230;-74
2021/03/15 01:07:04;;;;;;;7.57;4.13;;;;;;;0.03;100.00;100068.44;5044816;28;20240;-74
2021/03/15 01:09:37;;;;;;;7.43;3.50;;;;;;;-0.02;100.00;100066.72;5050870;28;20258;-74
2021/03/15 01:12:08;;;;;;;6.57;3.80;;;;;;;0.01;100.00;100063.31;5044868;28;20195;-75
2021/03/15 01:14:35;;;;;;;5.93;3.70;;;;;;;-0.04;100.00;100058.13;5048575;28;20213;-74
2021/03/15 01:17:14;;;;;;;6.30;3.37;;;;;;;-0.09;100.00;100059.84;5050077;28;20206;-75
2021/03/15 01:19:43;;;;;;;5.27;3.40;;;;;;;-0.13;100.00;100057.22;5048402;28;20219;-74
2021/03/15 01:22:11;;;;;;;5.07;3.27;;;;;;;-0.21;100.00;100049.47;5049083;28;20219;-75
2021/03/15 01:24:37;;;;;;;6.23;3.67;;;;;;;-0.20;100.00;100056.31;5048600;28;20567;-73
2021/03/15 01:27:04;;;;;;;6.40;3.97;;;;;;;-0.23;100.00;100044.34;5046294;28;20202;-71
2021/03/15 01:29:30;;;;;;;6.60;3.50;;;;;;;-0.13;100.00;100044.41;5051294;28;20630;-75
2021/03/15 01:31:56;;;;;;;5.83;3.50;;;;;;;-0.10;100.00;100041.88;5047064;28;20219;-74
2021/03/15 01:34:22;;;;;;;6.00;3.13;;;;;;;-0.07;100.00;100042.75;5039449;28;20203;-75
2021/03/15 01:36:48;;;;;;;6.80;3.27;;;;;;;-0.08;100.00;100042.75;5040267;28;20606;-74
2021/03/15 01:39:15;;;;;;;5.60;3.33;;;;;;;-0.07;100.00;100045.31;5048101;28;20277;-74
2021/03/15 01:41:41;;;;;;;6.30;3.13;;;;;;;-0.10;100.00;100041.88;5044774;28;20207;-75
2021/03/15 01:44:08;;;;;;;8.47;3.40;;;;;;;-0.14;100.00;100033.31;5045382;28;20199;-75
2021/03/15 01:46:34;;;;;;;6.80;4.00;;;;;;;-0.23;100.00;100033.22;5043012;28;20230;-75
2021/03/15 01:49:00;;;;;;;7.33;3.90;;;;;;;-0.25;100.00;100030.63;5046839;28;20590;-73
2021/03/15 01:51:27;;;;;;;6.63;3.70;;;;;;;-0.24;100.00;100026.38;5049834;28;20210;-73
2021/03/15 01:53:53;;;;;;;7.43;3.83;;;;;;;-0.23;100.00;100028.09;5046691;28;20198;-73
2021/03/15 01:56:20;;;;;;;6.40;3.40;;;;;;;-0.25;100.00;100022.94;5051837;28;20196;-73
2021/03/15 01:58:46;;;;;;;6.70;2.83;;;;;;;-0.28;100.00;100022.06;5042693;28;20215;-73
2021/03/15 02:01:13;;;;;;;8.90;4.20;;;;;;;-0.28;100.00;100016.94;5049641;28;20206;-72
2021/03/15 02:03:39;;;;;;;6.63;3.77;;;;;;;-0.27;100.00;100016.09;5040974;28;20677;-73
2021/03/15 02:06:06;;;;;;;5.77;3.37;;;;;;;-0.29;100.00;100013.53;5040776;28;20213;-74
2021/03/15 02:08:32;;;;;;;5.97;3.63;;;;;;;-0.35;100.00;100007.47;5042829;28;20227;-73
2021/03/15 02:11:03;;;;;;;9.57;4.10;;;;;;;-0.43;100.00;100012.56;5047782;28;20245;-73
2021/03/15 02:13:56;;;;;;;6.97;4.13;;;;;;;-0.38;100.00;100008.34;5053246;28;20282;-71
2021/03/15 02:16:28;;;;;;;7.27;3.63;;;;;;;-0.43;100.00;100010.00;5044298;28;20871;-74
2021/03/15 02:19:06;;;;;;;5.73;3.80;;;;;;;-0.48;100.00;100009.09;5042286;28;20244;-73
2021/03/15 02:22:00;;;;;;;5.97;3.60;;;;;;;-0.48;100.00;100003.97;5047116;28;20736;-73
2021/03/15 02:24:36;;;;;;;5.73;3.73;;;;;;;-0.52;100.00;99999.66;5047664;28;20288;-75
2021/03/15 02:27:35;;;;;;;7.70;4.20;;;;;;;-0.59;100.00;99998.75;5043964;28;20284;-75
2021/03/15 02:30:24;;;;;;;7.80;3.27;;;;;;;-0.62;100.00;100008.97;5047486;28;20219;-73
2021/03/15 02:33:09;;;;;;;7.93;4.00;;;;;;;-0.58;100.00;100008.16;5043370;28;20282;-75
2021/03/15 02:35:38;;;;;;;7.30;3.70;;;;;;;-0.64;100.00;100011.50;5046764;28;20195;-74
2021/03/15 02:38:06;;;;;;;6.60;3.97;;;;;;;-0.68;100.00;100006.34;5049209;28;20206;-70
2021/03/15 02:40:34;;;;;;;7.23;4.17;;;;;;;-0.70;100.00;99998.66;5043915;28;20195;-72
2021/03/15 02:43:04;;;;;;;6.40;3.80;;;;;;;-0.70;100.00;100005.44;5044731;28;20671;-75
2021/03/15 02:45:32;;;;;;;6.67;3.60;;;;;;;-0.64;100.00;100002.97;5047109;28;20244;-72
2021/03/15 02:47:59;;;;;;;6.03;3.70;;;;;;;-0.63;100.00;100003.00;5050232;28;20638;-74
2021/03/15 02:50:26;;;;;;;7.27;3.73;;;;;;;-0.56;100.00;100009.03;5048987;28;20270;-73
2021/03/15 02:52:55;;;;;;;6.23;3.80;;;;;;;-0.52;100.00;100018.44;5049615;28;20215;-71
2021/03/15 02:55:27;;;;;;;7.93;3.90;;;;;;;-0.48;100.00;100019.34;5044277;28;20579;-71
2021/03/15 02:57:55;;;;;;;6.53;3.83;;;;;;;-0.38;100.00;100022.00;5043769;28;20199;-75
2021/03/15 03:00:24;;;;;;;8.43;4.60;;;;;;;-0.29;100.00;100013.53;5041776;28;20792;-75
2021/03/15 03:02:51;;;;;;;7.70;4.00;;;;;;;-0.16;100.00;100016.19;5053223;28;20344;-74
2021/03/15 03:05:19;;;;;;;6.47;3.80;;;;;;;-0.07;100.00;100012.00;5041852;28;20200;-74
2021/03/15 03:07:48;;;;;;;7.73;4.13;;;;;;;0.03;100.00;100017.19;5049026;28;20202;-73
2021/03/15 03:10:19;;;;;;;11.37;4.67;;;;;;;0.09;100.00;100014.66;5050094;28;20271;-73
2021/03/15 03:12:47;;;;;;;8.67;4.83;;;;;;;0.15;100.00;100005.31;5048402;28;20719;-75
2021/03/15 03:15:15;;;;;;;8.13;4.47;;;;;;;0.21;100.00;100003.63;5045130;28;20207;-74
2021/03/15 03:17:43;;;;;;;7.77;4.97;;;;;;;0.24;100.00;100007.06;5045228;28;20202;-73
2021/03/15 03:20:12;;;;;;;9.17;4.80;;;;;;;0.30;100.00;99996.84;5050128;28;20924;-74
2021/03/15 03:22:40;;;;;;;7.53;4.50;;;;;;;0.32;100.00;100002.84;5043786;28;20196;-75
2021/03/15 03:25:09;;;;;;;7.97;5.13;;;;;;;0.37;100.00;100000.31;5044938;28;20210;-73
2021/03/15 03:27:36;;;;;;;11.33;5.60;;;;;;;0.42;100.00;100000.31;5045158;28;20230;-74
2021/03/15 03:30:05;;;;;;;10.53;5.40;;;;;;;0.44;100.00;99994.38;5045239;28;20669;-74
2021/03/15 03:32:34;;;;;;;10.60;5.67;;;;;;;0.47;100.00;99993.50;5043250;28;20282;-75
2021/03/15 03:35:01;;;;;;;8.27;5.07;;;;;;;0.48;100.00;99992.69;5045445;28;20267;-73
2021/03/15 03:37:27;;;;;;;10.43;5.40;;;;;;;0.50;100.00;99990.97;5044276;28;20260;-74
2021/03/15 03:39:53;;;;;;;8.40;4.87;;;;;;;0.54;100.00;99997.81;5040172;28;20203;-74
2021/03/15 03:42:19;;;;;;;11.30;5.37;;;;;;;0.57;100.00;99997.84;5048962;28;20287;-74
2021/03/15 03:44:46;;;;;;;11.33;6.13;;;;;;;0.59;100.00;99998.69;5047192;28;20204;-73
2021/03/15 03:47:15;;;;;;;8.50;4.60;;;;;;;0.61;100.00;99996.16;5043574;28;20230;-73
2021/03/15 03:49:41;;;;;;;10.43;5.40;;;;;;;0.63;100.00;99997.84;5045988;28;20229;-75
2021/03/15 03:52:08;;;;;;;8.83;5.23;;;;;;;0.65;100.00;99993.63;5047286;28;20713;-75
2021/03/15 03:54:36;;;;;;;10.47;4.90;;;;;;;0.69;100.00;99994.47;5042433;28;20189;-73
2021/03/15 03:57:08;;;;;;;9.13;5.47;;;;;;;0.72;100.00;99994.47;5044425;28;20285;-73
2021/03/15 03:59:37;;;;;;;8.37;5.10;;;;;;;0.74;100.00;99992.78;5041901;28;20256;-75
2021/03/15 04:02:07;;;;;;;8.87;5.37;;;;;;;0.76;100.00;99998.78;5042273;28;20692;-75
2021/03/15 04:04:38;;;;;;;11.70;5.37;;;;;;;0.78;100.00;100004.78;5047354;28;20229;-74
2021/03/15 04:07:07;;;;;;;11.20;5.37;;;;;;;0.80;100.00;100005.63;5045532;28;20232;-74
2021/03/15 04:09:35;;;;;;;8.47;5.30;;;;;;;0.83;100.00;100009.94;5044121;28;20295;-74
2021/03/15 04:12:06;;;;;;;9.87;5.70;;;;;;;0.86;100.00;100005.66;5037172;28;20248;-74
2021/03/15 04:14:37;;;;;;;10.60;5.17;;;;;;;0.90;100.00;100004.81;5047977;28;20696;-75
2021/03/15 04:17:05;;;;;;;9.67;5.47;;;;;;;0.91;100.00;100006.50;5044950;28;20282;-73
2021/03/15 04:19:36;;;;;;;12.87;5.47;;;;;;;0.94;100.00;100013.38;5046116;28;20301;-74
2021/03/15 04:22:06;;;;;;;8.53;4.67;;;;;;;0.98;100.00;100006.56;5044900;28;20728;-74
2021/03/15 04:24:35;;;;;;;10.77;5.67;;;;;;;1.01;100.00;100002.28;5049949;28;20294;-73
2021/03/15 04:27:01;;;;;;;9.10;5.63;;;;;;;1.02;100.00;100010.84;5052044;28;20203;-74
2021/03/15 04:29:29;;;;;;;8.37;4.67;;;;;;;1.03;100.00;100003.13;5049860;28;20599;-74
2021/03/15 04:31:56;;;;;;;12.60;5.83;;;;;;;1.04;100.00;100011.69;5049392;28;20194;-75
2021/03/15 04:34:23;;;;;;;9.87;5.40;;;;;;;1.06;100.00;100010.00;5047612;28;20202;-72
2021/03/15 04:36:50;;;;;;;9.80;5.67;;;;;;;1.07;100.00;100009.13;5052172;28;20666;-75
2021/03/15 04:39:17;;;;;;;10.43;5.33;;;;;;;1.06;100.00;100010.84;5043169;28;20731;-74
2021/03/15 04:41:43;;;;;;;9.77;5.50;;;;;;;1.03;100.00;100003.13;5051646;28;20211;-74
2021/03/15 04:44:12;;;;;;;9.63;5.03;;;;;;;0.97;100.00;100008.28;5041357;28;20198;-75
2021/03/15 04:46:39;;;;;;;9.00;5.00;;;;;;;0.91;100.00;100010.81;5049911;28;20847;-75
2021/03/15 04:49:07;;;;;;;11.23;5.60;;;;;;;0.86;100.00;100004.78;5048306;28;20767;-74
2021/03/15 04:51:36;;;;;;;8.50;5.10;;;;;;;0.79;100.00;100010.75;5046265;28;20297;-74
2021/03/15 04:54:04;;;;;;;10.17;5.17;;;;;;;0.68;100.00;100008.16;5048367;28;20244;-75
2021/03/15 04:56:33;;;;;;;9.30;5.23;;;;;;;0.63;100.00;100003.00;5047741;28;20584;-75
2021/03/15 04:59:00;;;;;;;9.80;5.00;;;;;;;0.57;100.00;100011.53;5051966;28;20245;-73
2021/03/15 05:01:29;;;;;;;7.50;4.77;;;;;;;0.53;100.00;100003.81;5046328;28;20202;-74
2021/03/15 05:03:57;;;;;;;10.03;5.23;;;;;;;0.49;100.00;100002.94;5047241;28;20201;-74
2021/03/15 05:06:24;;;;;;;8.47;4.83;;;;;;;0.47;100.00;99996.94;5049422;28;20288;-75
2021/03/15 05:08:54;;;;;;;7.30;4.60;;;;;;;0.44;100.00;99999.50;5043540;28;20276;-74
2021/03/15 05:11:24;;;;;;;9.23;4.57;;;;;;;0.43;100.00;99994.34;5042959;28;20202;-72
2021/03/15 05:13:51;;;;;;;7.87;4.77;;;;;;;0.45;100.00;100005.47;5048567;28;20265;-72
2021/03/15 05:16:17;;;;;;;8.30;4.90;;;;;;;0.46;100.00;100007.19;5044231;28;20209;-73
2021/03/15 05:18:43;;;;;;;7.30;4.87;;;;;;;0.42;100.00;99998.59;5044852;28;20219;-75
2021/03/15 05:21:09;;;;;;;8.23;4.77;;;;;;;0.38;100.00;100005.44;5048946;28;20289;-74
2021/03/15 05:23:38;;;;;;;7.73;4.93;;;;;;;0.35;100.00;100000.31;5044263;28;20204;-72
2021/03/15 05:26:05;;;;;;;9.23;5.10;;;;;;;0.31;100.00;100001.13;5044511;28;20199;-74
2021/03/15 05:28:32;;;;;;;9.60;4.97;;;;;;;0.25;100.00;100006.22;5044049;28;20231;-74
2021/03/15 05:31:02;;;;;;;8.63;4.90;;;;;;;0.20;100.00;100007.06;5048614;28;20219;-74
2021/03/15 05:33:31;;;;;;;9.07;4.80;;;;;;;0.15;100.00;100004.44;5044012;28;20209;-71
2021/03/15 05:35:58;;;;;;;8.93;5.07;;;;;;;0.10;100.00;100009.53;5042502;28;20196;-73
2021/03/15 05:38:25;;;;;;;9.50;5.03;;;;;;;0.05;100.00;100005.22;5041989;28;20581;-73
2021/03/15 05:40:53;;;;;;;7.17;4.60;;;;;;;0.01;100.00;100001.78;5045182;28;20541;-74
2021/03/15 05:43:33;;;;;;;9.43;5.07;;;;;;;-0.01;100.00;99999.22;5044490;28;20257;-74
2021/03/15 05:46:37;;;;;;;7.73;4.63;;;;;;;-0.02;100.00;99991.50;5046077;28;20269;-75
2021/03/15 05:49:30;;;;;;;8.80;5.07;;;;;;;0.02;100.00;99993.28;5047655;28;20384;-73
2021/03/15 05:52:05;;;;;;;8.53;4.63;;;;;;;0.07;100.00;99998.41;5045416;28;20274;-72
2021/03/15 05:54:56;;;;;;;8.77;5.27;;;;;;;0.14;100.00;99993.34;5039882;28;20211;-74
2021/03/15 05:57:54;;;;;;;9.53;5.57;;;;;;;0.25;100.00;99985.72;5047341;28;20660;-74
2021/03/15 06:00:36;;;;;;;10.50;5.63;;;;;;;0.37;100.00;99988.34;5042514;28;20243;-71
2021/03/15 06:03:13;;;;;;;10.07;5.90;;;;;;;0.49;100.00;99990.13;5048608;28;20210;-74
2021/03/15 06:05:44;;;;;;;10.40;5.90;;;;;;;0.59;100.00;99983.31;5045775;28;20237;-74
2021/03/15 06:08:15;;;;;;;13.20;6.00;;;;;;;0.69;100.00;99985.06;5042604;28;20196;-73
2021/03/15 06:10:48;;;;;;;10.53;5.50;;;;;;;0.85;100.00;99985.97;5047668;28;20266;-74
2021/03/15 06:13:16;;;;;;;10.87;5.90;;;;;;;0.98;100.00;99989.44;5043380;28;20724;-74
2021/03/15 06:15:44;;;;;;;10.43;5.90;;;;;;;1.10;100.00;99986.03;5044435;28;20205;-72
2021/03/15 06:18:13;;;;;;;13.73;7.17;;;;;;;1.20;100.00;99981.81;5047977;28;20237;-75
2021/03/15 06:20:41;;;;;;;11.93;6.03;;;;;;;1.28;100.00;99987.78;5042280;28;20203;-75
2021/03/15 06:23:08;;;;;;;10.33;6.30;;;;;;;1.37;100.00;99985.22;5044868;28;20210;-75
2021/03/15 06:25:35;;;;;;;12.53;6.50;;;;;;;1.47;100.00;99983.53;5055179;28;20818;-74
2021/03/15 06:28:02;;;;;;;11.87;6.40;;;;;;;1.55;100.00;99988.66;5048891;28;20714;-74
2021/03/15 06:30:29;;;;;;;15.13;7.30;;;;;;;1.60;100.00;99985.25;5047949;28;20203;-74
2021/03/15 06:32:57;;;;;;;13.07;6.73;;;;;;;1.65;100.00;99992.97;5047975;28;20207;-74
2021/03/15 06:35:25;;;;;;;11.83;6.67;;;;;;;1.62;100.00;99988.69;5045444;28;20183;-75
2021/03/15 06:37:51;;;;;;;14.57;6.77;;;;;;;1.60;100.00;99995.53;5047855;28;20215;-74
2021/03/15 06:40:18;;;;;;;13.07;6.50;;;;;;;1.59;100.00;99991.25;5044760;28;20297;-76
2021/03/15 06:42:45;;;;;;;12.77;7.20;;;;;;;1.56;100.00;99993.81;5051242;28;20642;-74
2021/03/15 06:45:13;;;;;;;15.77;7.13;;;;;;;1.57;100.00;99995.53;5044745;28;20200;-74
2021/03/15 06:47:40;;;;;;;13.37;7.60;;;;;;;1.59;100.00;99996.38;5046962;28;20272;-73
2021/03/15 06:50:08;;;;;;;13.40;7.60;;;;;;;1.62;100.00;99998.09;5042460;28;20216;-74
2021/03/15 06:52:57;;;;;;;12.53;6.97;;;;;;;1.67;100.00;99999.81;5049998;28;20529;-74
2021/03/15 06:55:24;;;;;;;15.37;7.13;;;;;;;1.75;100.00;100002.38;5045423;28;20281;-75
2021/03/15 06:57:51;;;;;;;16.33;7.20;;;;;;;1.82;100.00;100001.53;5042861;28;20195;-75
2021/03/15 07:00:18;;;;;;;11.67;7.00;;;;;;;1.90;100.00;100001.53;5045523;28;20212;-72
2021/03/15 07:02:44;;;;;;;14.27;6.77;;;;;;;1.94;100.00;100002.41;5042863;28;20693;-75
2021/03/15 07:05:13;;;;;;;13.87;7.57;;;;;;;1.99;100.00;100003.25;5042468;28;20195;-75
2021/03/15 07:07:48;;;;;;;14.23;7.87;;;;;;;2.03;99.96;100002.38;5045633;28;20215;-74
2021/03/15 07:10:16;;;;;;;14.57;7.07;;;;;;;2.01;98.89;99999.81;5048031;28;20210;-74
2021/03/15 07:12:42;;;;;;;13.80;7.03;;;;;;;2.03;99.27;100013.50;5040582;28;20212;-75
2021/03/15 07:15:09;;;;;;;14.60;7.03;;;;;;;2.07;98.76;100007.50;5048671;28;20563;-73
2021/03/15 07:17:36;;;;;;;13.10;6.97;;;;;;;2.13;98.90;100004.06;5046408;28;20210;-75
2021/03/15 07:20:03;;;;;;;11.97;6.47;;;;;;;2.15;98.24;100004.94;5046446;28;20715;-75
2021/03/15 07:22:30;;;;;;;14.23;6.70;;;;;;;2.24;97.62;100009.19;5046923;28;20193;-74
2021/03/15 07:25:23;;;;;;;13.00;6.87;;;;;;;2.30;97.54;99998.88;5043344;28;20194;-73
2021/03/15 07:27:53;;;;;;;12.37;6.87;;;;;;;2.38;97.76;100007.44;5024290;28;20242;-74
2021/03/15 07:30:30;;;;;;;13.27;6.83;;;;;;;2.46;97.26;100005.72;5046913;28;20272;-74
2021/03/15 07:32:59;;;;;;;11.40;6.17;;;;;;;2.53;96.57;100005.69;5039682;28;20203;-73
2021/03/15 07:35:28;;;;;;;12.97;6.33;;;;;;;2.58;96.13;100007.38;5043787;28;20195;-74
2021/03/15 07:37:55;;;;;;;11.13;6.23;;;;;;;2.60;95.51;100005.69;5050087;28;20270;-74
2021/03/15 07:40:39;;;;;;;12.40;6.93;;;;;;;2.70;94.76;99998.75;5044110;28;20221;-73
2021/03/15 07:43:07;;;;;;;14.90;8.60;;;;;;;2.74;94.75;100002.19;5046063;28;20223;-73
2021/03/15 07:45:35;;;;;;;15.67;8.63;;;;;;;2.71;93.19;100004.75;5040997;28;20609;-73
2021/03/15 07:48:16;;;;;;;11.20;6.53;;;;;;;2.81;92.39;100007.31;5047383;28;20314;-73
2021/03/15 07:50:44;;;;;;;12.70;6.53;;;;;;;2.95;92.64;100008.97;5045484;28;20203;-73
2021/03/15 07:53:13;;;;;;;14.80;6.20;;;;;;;3.09;91.45;100009.72;5042259;28;20599;-74
2021/03/15 07:55:40;;;;;;;9.97;5.97;;;;;;;3.15;91.02;100006.25;5042209;28;20698;-73
2021/03/15 07:58:29;;;;;;;11.07;5.77;;;;;;;3.31;90.95;100010.47;5040106;28;20195;-74
2021/03/15 08:00:56;;;;;;;10.80;5.93;;;;;;;3.35;90.44;100012.16;5036004;28;20276;-74
2021/03/15 08:03:24;;;;;;;10.63;6.10;;;;;;;3.49;89.43;100022.38;5040765;28;20234;-74
2021/03/15 08:05:50;;;;;;;9.47;5.57;;;;;;;3.54;89.57;100014.63;5053157;28;20270;-73
2021/03/15 08:08:18;;;;;;;11.73;5.53;;;;;;;3.69;89.32;100016.22;5044416;28;20214;-74
2021/03/15 08:10:45;;;;;;;9.27;4.80;;;;;;;3.81;88.68;100018.72;5046525;28;20260;-74
2021/03/15 08:13:12;;;;;;;8.80;4.83;;;;;;;3.88;88.44;100019.53;5042019;28;20203;-74
2021/03/15 08:15:40;;;;;;;10.20;4.80;;;;;;;3.94;87.63;100025.50;5047248;28;20199;-73
2021/03/15 08:18:08;;;;;;;8.57;5.03;;;;;;;3.95;87.26;100022.03;5046038;28;20211;-74
2021/03/15 08:20:36;;;;;;;5.30;3.87;;;;;;;4.03;87.00;100016.81;5046403;28;20199;-74
2021/03/15 08:23:03;;;;;;;6.50;3.80;;;;;;;4.04;87.14;100022.81;5061769;28;20676;-73
2021/03/15 08:25:30;;;;;;;7.40;4.53;;;;;;;4.10;87.13;100018.47;5043792;28;20199;-74
2021/03/15 08:28:01;;;;;;;8.70;4.60;;;;;;;4.18;87.06;100023.53;5046179;28;20195;-75
2021/03/15 08:30:30;;;;;;;8.27;5.40;;;;;;;4.21;86.32;100026.09;5042921;28;20219;-73
2021/03/15 08:32:57;;;;;;;6.73;4.50;;;;;;;4.23;85.42;100019.19;5047784;28;20228;-74
2021/03/15 08:35:23;;;;;;;6.70;4.83;;;;;;;4.25;85.40;100022.63;5045934;28;20196;-74
2021/03/15 08:37:57;;;;;;;7.13;4.87;;;;;;;4.26;84.84;100026.91;5046932;28;20261;-73
2021/03/15 08:40:53;;;;;;;7.57;5.30;;;;;;;4.31;84.91;100022.56;5045948;28;20294;-74
2021/03/15 08:43:29;;;;;;;7.40;4.57;;;;;;;4.44;84.41;100022.44;5044774;28;20274;-74
2021/03/15 08:45:56;;;;;;;7.87;5.83;;;;;;;4.51;84.80;100016.34;5041716;28;20899;-75
2021/03/15 08:48:51;;;;;;;8.57;5.27;;;;;;;4.68;84.92;100013.56;5041286;28;20221;-74
2021/03/15 08:51:38;;;;;;;6.00;4.87;;;;;;;4.85;83.95;100008.19;5042848;28;20244;-74
2021/03/15 08:54:06;;;;;;;10.33;5.37;;;;;;;4.98;84.20;100011.47;5044548;28;20195;-74
2021/03/15 08:56:39;;;;;;;10.47;5.67;;;;;;;5.07;83.42;100003.63;5044587;28;20680;-73
2021/03/15 08:59:08;;;;;;;8.63;5.03;;;;;;;5.07;82.89;100007.03;5044562;28;20583;-74
2021/03/15 09:02:05;;;;;;;9.27;5.60;;;;;;;5.06;82.39;100001.88;5036834;28;20203;-74
2021/03/15 09:04:41;;;;;;;8.17;4.97;;;;;;;5.00;82.36;100002.81;5020776;28;20264;-75
2021/03/15 09:07:27;;;;;;;6.93;5.03;;;;;;;5.05;82.29;99997.63;5043412;28;20224;-74
2021/03/15 09:09:53;;;;;;;6.93;5.10;;;;;;;5.04;81.53;99996.75;5042954;28;20234;-74
2021/03/15 09:12:20;;;;;;;7.47;5.37;;;;;;;5.01;82.16;99996.78;5048789;28;20210;-74
2021/03/15 09:14:54;;;;;;;6.57;5.07;;;;;;;4.89;82.15;99997.81;5046735;28;20214;-74
2021/03/15 09:17:32;;;;;;;7.30;4.93;;;;;;;4.72;83.22;99994.56;5049471;28;20233;-74
2021/03/15 09:20:15;;;;;;;7.87;5.10;;;;;;;4.57;83.31;99993.00;5043867;28;20651;-74
2021/03/15 09:22:41;;;;;;;6.73;5.00;;;;;;;4.55;83.63;99999.94;5047308;28;20583;-74
2021/03/15 09:25:21;;;;;;;11.73;7.17;;;;;;;4.60;83.48;99993.00;5046656;28;20195;-74
2021/03/15 09:27:53;;;;;;;6.57;4.90;;;;;;;4.69;83.43;99990.28;5050709;28;20198;-74
2021/03/15 09:30:23;;;;;;;8.90;5.53;;;;;;;4.71;83.34;99987.69;5044655;28;20649;-73
2021/03/15 09:32:50;;;;;;;8.03;5.93;;;;;;;4.78;83.63;99988.47;5048353;28;20698;-74
2021/03/15 09:35:28;;;;;;;6.57;5.73;;;;;;;4.79;83.80;99987.63;5047122;28;20203;-74
2021/03/15 09:37:57;;;;;;;7.17;6.20;;;;;;;4.85;83.70;99992.69;5046562;28;20282;-74
2021/03/15 09:40:27;;;;;;;10.10;6.53;;;;;;;4.82;83.00;99995.31;5048299;28;20211;-74
2021/03/15 09:42:54;;;;;;;8.10;5.83;;;;;;;4.83;83.60;99991.84;5047149;28;20202;-74
2021/03/15 09:45:30;;;;;;;10.10;6.27;;;;;;;4.88;83.83;99988.34;5049219;28;20225;-74
2021/03/15 09:47:57;;;;;;;10.33;6.73;;;;;;;4.86;83.22;99994.41;5042168;28;20196;-74
2021/03/15 09:50:25;;;;;;;8.73;6.80;;;;;;;4.86;83.44;99981.50;5049685;28;20697;-74
2021/03/15 09:53:10;;;;;;;8.40;6.43;;;;;;;4.91;84.20;99983.13;5043445;28;20740;-74
2021/03/15 09:55:39;;;;;;;8.83;6.27;;;;;;;4.92;83.74;99986.56;5045207;28;20206;-74
2021/03/15 09:58:07;;;;;;;10.30;7.10;;;;;;;4.92;83.87;99990.03;5047755;28;20203;-74
2021/03/15 10:00:44;;;;;;;9.40;6.83;;;;;;;4.81;83.72;99989.28;5045749;28;20198;-74
2021/03/15 10:03:31;;;;;;;9.13;6.67;;;;;;;4.70;84.37;99986.84;5043938;28;20195;-74
2021/03/15 10:06:20;;;;;;;7.93;6.57;;;;;;;4.69;84.99;99985.13;5045122;28;20927;-74
2021/03/15 10:09:05;;;;;;;8.07;6.20;;;;;;;4.55;85.70;99981.84;5045206;28;20215;-75
2021/03/15 10:12:19;;;;;;;9.90;7.03;;;;;;;4.63;87.03;99982.63;5047853;28;20720;-74
2021/03/15 10:15:04;;;;;;;7.33;6.27;;;;;;;4.61;87.53;99984.38;5044613;28;20199;-74
2021/03/15 10:17:56;;;;;;;8.33;5.57;;;;;;;4.53;86.82;99988.78;5041794;28;20610;-73
2021/03/15 10:20:43;;;;;;;7.97;5.20;;;;;;;4.50;87.33;99983.63;5036178;28;20313;-74
2021/03/15 10:23:13;;;;;;;6.13;5.13;;;;;;;4.47;86.99;99983.69;5044655;28;20227;-74
2021/03/15 10:25:52;;;;;;;8.50;5.83;;;;;;;4.36;87.62;99979.50;5041788;28;20245;-74
2021/03/15 10:28:19;;;;;;;8.23;5.40;;;;;;;4.25;87.62;99975.31;5043335;28;20223;-74
2021/03/15 10:30:46;;;;;;;7.10;4.80;;;;;;;4.13;87.93;99977.16;5044886;28;20200;-74
2021/03/15 10:33:17;;;;;;;7.23;4.77;;;;;;;4.10;88.15;99977.19;5047938;28;20286;-74
2021/03/15 10:35:47;;;;;;;5.93;4.53;;;;;;;4.04;88.28;99978.97;5044880;28;20208;-74
2021/03/15 10:38:22;;;;;;;8.63;5.23;;;;;;;4.05;88.58;99980.69;5043914;28;20278;-74
2021/03/15 10:40:56;;;;;;;7.80;5.43;;;;;;;4.12;89.25;99978.03;5045044;28;20203;-74
2021/03/15 10:43:25;;;;;;;7.20;5.20;;;;;;;4.10;88.74;99973.75;5047535;28;20841;-74
2021/03/15 10:46:13;;;;;;;6.27;5.13;;;;;;;4.06;89.47;99966.91;5044523;28;20222;-74
2021/03/15 10:48:40;;;;;;;7.03;5.07;;;;;;;4.06;89.33;99960.00;5042962;28;20218;-74
2021/03/15 10:51:06;;;;;;;7.43;4.90;;;;;;;4.08;89.77;99968.63;5042030;28;20284;-74
2021/03/15 10:53:46;;;;;;;7.70;5.20;;;;;;;4.01;89.41;99963.50;5040282;28;20237;-74
2021/03/15 10:56:17;;;;;;;6.57;5.87;;;;;;;3.97;89.32;99965.28;5047799;28;20256;-74
2021/03/15 10:58:50;;;;;;;6.33;4.67;;;;;;;3.96;89.51;99969.59;5041589;28;20288;-74
2021/03/15 11:01:23;;;;;;;6.40;5.20;;;;;;;3.94;89.53;99966.16;5036357;28;20199;-73
2021/03/15 11:03:54;;;;;;;7.83;5.33;;;;;;;3.98;89.42;99965.25;5039311;28;20203;-74
2021/03/15 11:06:29;;;;;;;5.97;4.67;;;;;;;4.09;89.33;99961.72;5039965;28;20278;-74
2021/03/15 11:09:17;;;;;;;8.53;5.73;;;;;;;4.32;89.82;99959.75;5042802;28;20215;-73
2021/03/15 11:11:53;;;;;;;11.07;6.83;;;;;;;4.47;88.99;99957.88;5045524;28;20191;-74
2021/03/15 11:14:20;;;;;;;8.30;5.40;;;;;;;4.45;88.63;99959.59;5042446;28;20224;-74
2021/03/15 11:17:02;;;;;;;7.40;5.20;;;;;;;4.30;88.26;99955.47;5041212;28;20192;-74
2021/03/15 11:19:35;;;;;;;5.97;4.50;;;;;;;4.27;89.18;99952.91;5041726;28;20302;-74
2021/03/15 11:22:01;;;;;;;8.33;5.17;;;;;;;4.24;88.85;99963.28;5046991;28;20209;-74
2021/03/15 11:24:35;;;;;;;6.50;4.10;;;;;;;4.17;89.05;99955.63;5044070;28;20282;-74
2021/03/15 11:27:04;;;;;;;5.67;4.57;;;;;;;4.18;88.86;99956.44;5041469;28;20196;-74
2021/03/15 11:29:53;;;;;;;5.50;4.47;;;;;;;4.19;89.30;99955.59;5043627;28;20297;-73
2021/03/15 11:32:32;;;;;;;7.10;5.33;;;;;;;4.16;89.30;99955.63;5057295;28;20203;-74
2021/03/15 11:35:17;;;;;;;5.87;4.53;;;;;;;4.12;89.99;99949.63;5045502;28;20203;-74
2021/03/15 11:37:52;;;;;;;7.13;4.87;;;;;;;4.09;90.97;99946.25;5040862;28;20570;-73
2021/03/15 11:40:39;;;;;;;6.60;4.63;;;;;;;4.02;91.81;99950.59;5043923;28;20742;-73
2021/03/15 11:43:07;;;;;;;5.03;4.00;;;;;;;3.93;92.27;99941.22;5041481;28;20219;-74
2021/03/15 11:45:36;;;;;;;6.43;4.50;;;;;;;3.92;92.82;99944.69;5046861;28;20192;-74
2021/03/15 11:48:04;;;;;;;5.03;4.03;;;;;;;3.92;93.64;99939.53;5043544;28;20195;-74